LGTS - Thessaloniki/Mik, Greece
Distance from station: 15km
: 27/09/2023 21:20
Few Clouds
Few Clouds
   varies
: varies 6 km/h
: 23°C
: 15°C
: 61%
: 1014 hPa
Clouds: Few Clouds
Visibility: 10 km
Cloud details: Few Clouds 914 m
2023/09/27 18:20 LGTS 271820Z VRB03KT 9999 FEW030 23/15 Q1014 NOSIG
LGKZ - Kozani (civ/Army, Greece
Distance from station: 113km
: 27/09/2023 21:20


: 7 km/h
: 18°C
: 8°C
: 52%
: 1017 hPa
2023/09/27 18:20 LGKZ 271820Z AUTO 35004KT //// // ////// 18/08 Q1017 RE//
 
LGKV - Kavala/Chrisoupo, Greece
Distance from station: 132km
: 27/09/2023 21:20
Partly Cloudy
Partly Cloudy

: 17 km/h
: 24°C
: 8°C
: 36%
: 1014 hPa
Clouds: Partly Cloudy
Visibility: 10 km
Cloud details: Few Clouds 914 m
Partly Cloudy 2438 m
2023/09/27 18:20 LGKV 271820Z 08009KT 9999 FEW030 SCT080 24/08 Q1014
LGBL - Nea Anchialos, Greece
Distance from station: 156km
: 27/09/2023 21:20
Light thunderstorm, ,
Light thunderstorm, ,

: 13 km/h
: 17°C
: 16°C
: 94%
: 1016 hPa
: Light thunderstorm,
Clouds:
Visibility: 6 km
Cloud details: Few Clouds 549 m
Mostly Cloudy 762 m
2134 m
2023/09/27 18:20 LGBL 271820Z 31007KT 6000 -TSRA FEW018CB BKN025 OVC070 17/16 Q1016
 
LGSK - Skiathos Island, Greece
Distance from station: 161km
: 27/09/2023 20:50
Partly Cloudy
Partly Cloudy
   varies
: varies 2 km/h
: 19°C
: 17°C
: 88%
: 1012 hPa
Clouds: Partly Cloudy
Visibility: 9 km
Cloud details: Partly Cloudy 549 m
Partly Cloudy 1067 m
2023/09/27 17:50 LGSK 271750Z VRB01KT 9000 SCT018TCU SCT035 19/17 Q1012
LWSK - Skopje/Petrovac, Macedonia
Distance from station: 195km
: 27/09/2023 21:30
Few Clouds
Few Clouds

: 24 km/h
: 23°C
: 10°C
: 44%
: 1017 hPa
Clouds: Few Clouds
Visibility: 10 km
Cloud details: Few Clouds 3048 m
2023/09/27 18:30 LWSK 271830Z 02013KT 9999 FEW100 23/10 Q1017 NOSIG
 
LGLM - Limnos Island Ar, Greece
Distance from station: 196km
: 27/09/2023 21:20
Few Clouds
Few Clouds

: 20 km/h, : 39 km/h
: 24°C
: 15°C
: 57%
: 1013 hPa
Clouds: Few Clouds
Visibility: 10 km
Cloud details: Few Clouds 610 m
2023/09/27 18:20 LGLM 271820Z 06011G21KT 9999 FEW020 24/15 Q1013
LWOH - Ohrid, Macedonia
Distance from station: 202km
: 27/09/2023 21:30
Few Clouds
Few Clouds

: 9 km/h
: 16°C
: 9°C
: 63%
: 1018 hPa
Clouds: Few Clouds
Visibility: 10 km
Cloud details: Few Clouds 2743 m
2023/09/27 18:30 LWOH 271830Z 36005KT 9999 FEW090 16/09 Q1018
 
LGSY - Skiros, Greece
Distance from station: 217km
: 27/09/2023 20:50
Few Clouds
Few Clouds
   varies
: varies 4 km/h
: 21°C
: 18°C
: 83%
: 1012 hPa
Clouds: Few Clouds
Visibility: 10 km
Cloud details: Few Clouds 762 m
2023/09/27 17:50 LGSY 271750Z VRB02KT 9999 FEW025 21/18 Q1012 RMK SCT080 SCT200 BLU
LGIO - Ioannina, Greece
Distance from station: 218km
: 27/09/2023 21:20
Mostly Cloudy
Mostly Cloudy
   varies
: varies 7 km/h
: 21°C
: 10°C
: 50%
: 1015 hPa
Clouds: Mostly Cloudy
Visibility: 10 km
Cloud details: Partly Cloudy 1067 m
Mostly Cloudy 2438 m
2023/09/27 18:20 LGIO 271820Z VRB04KT 9999 SCT035 BKN080 21/10 Q1015
 
LBPD - Plovdiv, Bulgaria
Distance from station: 222km
: 27/09/2023 21:30
Mostly Cloudy
Mostly Cloudy

: 13 km/h
: 22°C
: 14°C
: 61%
: 1019 hPa
Clouds: Mostly Cloudy
Visibility: 10 km
Cloud details: Mostly Cloudy 2195 m
Mostly Cloudy 2743 m
2023/09/27 18:30 LBPD 271830Z AUTO 14007KT 9999 BKN072/// BKN090/// 22/14 Q1019 NOSIG
LBSF - Sofia (observato, Bulgaria
Distance from station: 229km
: 27/09/2023 21:30
Mostly Cloudy
Mostly Cloudy

: 7 km/h
: 19°C
: 9°C
: 52%
: 1021 hPa
Clouds: Mostly Cloudy
Visibility: 10 km
Cloud details: Mostly Cloudy 2195 m
2023/09/27 18:30 LBSF 271830Z 08004KT 9999 BKN072 19/09 Q1021 NOSIG
 
LGAL - Alexandroupolis, Greece
Distance from station: 242km
: 27/09/2023 21:20
Partly Cloudy
Partly Cloudy

: 31 km/h
: 25°C
: 17°C
: 61%
: 1014 hPa
Clouds: Partly Cloudy
Visibility: 10 km
Cloud details: Partly Cloudy 762 m
2023/09/27 18:20 LGAL 271820Z 06017KT 9999 SCT025 25/17 Q1014
LGPZ - Preveza/Aktion, Greece
Distance from station: 274km
: 27/09/2023 20:50
Mostly Cloudy
Mostly Cloudy

: 17 km/h
: 22°C
: 15°C
: 65%
: 1013 hPa
Clouds: Mostly Cloudy
Visibility: 10 km
Cloud details: Few Clouds 610 m
Partly Cloudy 1067 m
Mostly Cloudy 2438 m
2023/09/27 17:50 LGPZ 271750Z 09009KT 9999 FEW020 SCT035 BKN080 22/15 Q1013
 
BKPR - Prishtina, Yugoslavia
Distance from station: 280km
: 27/09/2023 21:30
Clear
Clear

: 26 km/h
: 19°C
: 10°C
: 56%
: 1020 hPa
: Clear
Visibility: greater than 10 km
2023/09/27 18:30 BKPR 271830Z 36014KT CAVOK 19/10 Q1020 NOSIG
LGEL - Elefsis (hel-Afb, Greece
Distance from station: 284km
: 27/09/2023 21:20
Few Clouds
Few Clouds

: 17 km/h
: 21°C
: 15°C
: 69%
: 1012 hPa
Clouds: Few Clouds
Visibility: 10 km
Cloud details: Few Clouds 457 m
2023/09/27 18:20 LGEL 271820Z 33009KT 9999 FEW015 21/15 Q1012
 
LATI - Tirana, Albania
Distance from station: 291km
: 27/09/2023 21:20
Clear
Clear
   varies
: varies 2 km/h
: 20°C
: 14°C
: 69%
: 1014 hPa
: Clear
Visibility: greater than 10 km
2023/09/27 18:20 LATI 271820Z VRB01KT CAVOK 20/14 Q1014 NOSIG
LGKR - Ioannis Kapodist, Greece
Distance from station: 292km
: 27/09/2023 21:20
Mostly Cloudy
Mostly Cloudy
   calm
:
: 24°C
: 19°C
: 74%
: 1011 hPa
Clouds: Mostly Cloudy
Visibility: 10 km
Cloud details: Few Clouds 762 m
Mostly Cloudy 2438 m
2023/09/27 18:20 LGKR 271820Z 00000KT 9999 FEW025 BKN080 24/19 Q1011 NOSIG